sensor_id;sensor_type;location;lat;lon;timestamp;temperature;humidity
46932;DHT22;32670;51.464;11.964;2022-08-21T00:02:22;24.80;67.50
46932;DHT22;32670;51.464;11.964;2022-08-21T00:04:49;24.80;67.40
46932;DHT22;32670;51.464;11.964;2022-08-21T00:07:16;24.80;67.40
46932;DHT22;32670;51.464;11.964;2022-08-21T00:09:42;24.80;67.30
46932;DHT22;32670;51.464;11.964;2022-08-21T00:12:07;24.80;67.30
46932;DHT22;32670;51.464;11.964;2022-08-21T00:14:34;24.80;67.30
46932;DHT22;32670;51.464;11.964;2022-08-21T00:16:59;24.80;67.30
46932;DHT22;32670;51.464;11.964;2022-08-21T00:19:25;24.80;67.30
46932;DHT22;32670;51.464;11.964;2022-08-21T00:21:53;24.80;67.30
46932;DHT22;32670;51.464;11.964;2022-08-21T00:24:19;24.80;67.40
46932;DHT22;32670;51.464;11.964;2022-08-21T00:26:45;24.80;67.50
46932;DHT22;32670;51.464;11.964;2022-08-21T00:29:10;24.70;67.50
46932;DHT22;32670;51.464;11.964;2022-08-21T00:31:37;24.70;67.60
46932;DHT22;32670;51.464;11.964;2022-08-21T00:34:03;24.70;67.70
46932;DHT22;32670;51.464;11.964;2022-08-21T00:36:29;24.70;67.70
46932;DHT22;32670;51.464;11.964;2022-08-21T00:38:54;24.70;67.70
46932;DHT22;32670;51.464;11.964;2022-08-21T00:41:20;24.70;67.70
46932;DHT22;32670;51.464;11.964;2022-08-21T00:43:48;24.70;67.70
46932;DHT22;32670;51.464;11.964;2022-08-21T00:46:14;24.70;67.70
46932;DHT22;32670;51.464;11.964;2022-08-21T00:48:39;24.70;67.80
46932;DHT22;32670;51.464;11.964;2022-08-21T00:51:10;24.70;67.80
46932;DHT22;32670;51.464;11.964;2022-08-21T00:53:38;24.60;67.80
46932;DHT22;32670;51.464;11.964;2022-08-21T00:56:05;24.60;67.90
46932;DHT22;32670;51.464;11.964;2022-08-21T00:58:32;24.70;68.00
46932;DHT22;32670;51.464;11.964;2022-08-21T01:01:03;24.60;67.90
46932;DHT22;32670;51.464;11.964;2022-08-21T01:03:28;24.60;67.80
46932;DHT22;32670;51.464;11.964;2022-08-21T01:05:54;24.60;67.70
46932;DHT22;32670;51.464;11.964;2022-08-21T01:08:20;24.60;67.50
46932;DHT22;32670;51.464;11.964;2022-08-21T01:10:47;24.60;67.50
46932;DHT22;32670;51.464;11.964;2022-08-21T01:13:15;24.60;67.30
46932;DHT22;32670;51.464;11.964;2022-08-21T01:15:44;24.60;67.30
46932;DHT22;32670;51.464;11.964;2022-08-21T01:18:12;24.50;67.10
46932;DHT22;32670;51.464;11.964;2022-08-21T01:20:40;24.50;67.10
46932;DHT22;32670;51.464;11.964;2022-08-21T01:23:07;24.50;67.20
46932;DHT22;32670;51.464;11.964;2022-08-21T01:25:34;24.50;67.20
46932;DHT22;32670;51.464;11.964;2022-08-21T01:28:11;24.50;67.20
46932;DHT22;32670;51.464;11.964;2022-08-21T01:30:37;24.40;67.10
46932;DHT22;32670;51.464;11.964;2022-08-21T01:33:03;24.40;67.10
46932;DHT22;32670;51.464;11.964;2022-08-21T01:35:29;24.40;67.10
46932;DHT22;32670;51.464;11.964;2022-08-21T01:37:55;24.40;67.60
46932;DHT22;32670;51.464;11.964;2022-08-21T01:40:20;24.40;67.00
46932;DHT22;32670;51.464;11.964;2022-08-21T01:42:47;24.40;66.90
46932;DHT22;32670;51.464;11.964;2022-08-21T01:45:15;24.40;66.80
46932;DHT22;32670;51.464;11.964;2022-08-21T01:47:42;24.40;66.70
46932;DHT22;32670;51.464;11.964;2022-08-21T01:50:11;24.40;66.70
46932;DHT22;32670;51.464;11.964;2022-08-21T01:52:37;24.40;66.50
46932;DHT22;32670;51.464;11.964;2022-08-21T01:55:04;24.40;66.50
46932;DHT22;32670;51.464;11.964;2022-08-21T01:57:29;24.30;66.40
46932;DHT22;32670;51.464;11.964;2022-08-21T01:59:55;24.30;66.30
46932;DHT22;32670;51.464;11.964;2022-08-21T02:02:20;24.30;66.10
46932;DHT22;32670;51.464;11.964;2022-08-21T02:04:46;24.40;66.10
46932;DHT22;32670;51.464;11.964;2022-08-21T02:07:12;24.30;65.90
46932;DHT22;32670;51.464;11.964;2022-08-21T02:09:37;24.30;65.80
46932;DHT22;32670;51.464;11.964;2022-08-21T02:12:03;24.30;65.80
46932;DHT22;32670;51.464;11.964;2022-08-21T02:14:28;24.30;65.70
46932;DHT22;32670;51.464;11.964;2022-08-21T02:16:54;24.20;65.70
46932;DHT22;32670;51.464;11.964;2022-08-21T02:19:19;24.20;65.60
46932;DHT22;32670;51.464;11.964;2022-08-21T02:21:45;24.20;65.40
46932;DHT22;32670;51.464;11.964;2022-08-21T02:24:11;24.20;65.00
46932;DHT22;32670;51.464;11.964;2022-08-21T02:26:37;24.20;64.70
46932;DHT22;32670;51.464;11.964;2022-08-21T02:29:04;24.20;64.40
46932;DHT22;32670;51.464;11.964;2022-08-21T02:31:30;24.20;64.10
46932;DHT22;32670;51.464;11.964;2022-08-21T02:33:56;24.20;64.00
46932;DHT22;32670;51.464;11.964;2022-08-21T02:36:22;24.20;64.10
46932;DHT22;32670;51.464;11.964;2022-08-21T02:38:47;24.20;64.00
46932;DHT22;32670;51.464;11.964;2022-08-21T02:41:17;24.20;63.80
46932;DHT22;32670;51.464;11.964;2022-08-21T02:43:43;24.20;63.70
46932;DHT22;32670;51.464;11.964;2022-08-21T02:46:10;24.20;63.50
46932;DHT22;32670;51.464;11.964;2022-08-21T02:48:36;24.10;63.20
46932;DHT22;32670;51.464;11.964;2022-08-21T02:51:08;24.10;63.10
46932;DHT22;32670;51.464;11.964;2022-08-21T02:53:35;24.20;63.00
46932;DHT22;32670;51.464;11.964;2022-08-21T02:56:03;24.10;62.80
46932;DHT22;32670;51.464;11.964;2022-08-21T02:58:33;24.10;62.90
46932;DHT22;32670;51.464;11.964;2022-08-21T03:00:59;24.10;62.80
46932;DHT22;32670;51.464;11.964;2022-08-21T03:03:27;24.10;62.40
46932;DHT22;32670;51.464;11.964;2022-08-21T03:05:53;24.10;62.30
46932;DHT22;32670;51.464;11.964;2022-08-21T03:08:20;24.10;62.20
46932;DHT22;32670;51.464;11.964;2022-08-21T03:10:47;24.10;62.10
46932;DHT22;32670;51.464;11.964;2022-08-21T03:13:14;24.10;62.10
46932;DHT22;32670;51.464;11.964;2022-08-21T03:15:40;24.00;62.00
46932;DHT22;32670;51.464;11.964;2022-08-21T03:18:07;24.00;61.90
46932;DHT22;32670;51.464;11.964;2022-08-21T03:20:34;24.00;62.00
46932;DHT22;32670;51.464;11.964;2022-08-21T03:23:00;24.00;61.90
46932;DHT22;32670;51.464;11.964;2022-08-21T03:25:27;24.00;62.00
46932;DHT22;32670;51.464;11.964;2022-08-21T03:27:52;24.00;62.00
46932;DHT22;32670;51.464;11.964;2022-08-21T03:30:20;23.90;62.10
46932;DHT22;32670;51.464;11.964;2022-08-21T03:32:46;23.90;62.20
46932;DHT22;32670;51.464;11.964;2022-08-21T03:35:12;23.90;62.30
46932;DHT22;32670;51.464;11.964;2022-08-21T03:37:38;23.90;62.10
46932;DHT22;32670;51.464;11.964;2022-08-21T03:40:07;23.90;61.90
46932;DHT22;32670;51.464;11.964;2022-08-21T03:42:32;23.90;62.20
46932;DHT22;32670;51.464;11.964;2022-08-21T03:44:58;23.90;62.40
46932;DHT22;32670;51.464;11.964;2022-08-21T03:47:24;23.90;62.70
46932;DHT22;32670;51.464;11.964;2022-08-21T03:49:49;23.90;62.80
46932;DHT22;32670;51.464;11.964;2022-08-21T03:52:15;23.90;62.80
46932;DHT22;32670;51.464;11.964;2022-08-21T03:54:42;23.90;62.90
46932;DHT22;32670;51.464;11.964;2022-08-21T03:57:08;23.90;62.90
46932;DHT22;32670;51.464;11.964;2022-08-21T03:59:35;23.80;62.90
46932;DHT22;32670;51.464;11.964;2022-08-21T04:02:02;23.80;63.10
46932;DHT22;32670;51.464;11.964;2022-08-21T04:04:29;23.80;63.00
46932;DHT22;32670;51.464;11.964;2022-08-21T04:06:55;23.80;63.10
46932;DHT22;32670;51.464;11.964;2022-08-21T04:09:21;23.70;63.20
46932;DHT22;32670;51.464;11.964;2022-08-21T04:11:47;23.70;63.30
46932;DHT22;32670;51.464;11.964;2022-08-21T04:14:13;23.70;63.20
46932;DHT22;32670;51.464;11.964;2022-08-21T04:16:40;23.70;63.00
46932;DHT22;32670;51.464;11.964;2022-08-21T04:19:06;23.70;62.80
46932;DHT22;32670;51.464;11.964;2022-08-21T04:21:32;23.70;62.50
46932;DHT22;32670;51.464;11.964;2022-08-21T04:23:58;23.70;62.50
46932;DHT22;32670;51.464;11.964;2022-08-21T04:26:24;23.70;62.40
46932;DHT22;32670;51.464;11.964;2022-08-21T04:28:50;23.80;62.40
46932;DHT22;32670;51.464;11.964;2022-08-21T04:31:16;23.80;62.40
46932;DHT22;32670;51.464;11.964;2022-08-21T04:33:42;23.70;62.50
46932;DHT22;32670;51.464;11.964;2022-08-21T04:36:07;23.70;62.60
46932;DHT22;32670;51.464;11.964;2022-08-21T04:38:33;23.80;62.80
46932;DHT22;32670;51.464;11.964;2022-08-21T04:40:59;23.70;62.90
46932;DHT22;32670;51.464;11.964;2022-08-21T04:43:25;23.70;63.00
46932;DHT22;32670;51.464;11.964;2022-08-21T04:45:51;23.70;63.20
46932;DHT22;32670;51.464;11.964;2022-08-21T04:48:20;23.70;63.40
46932;DHT22;32670;51.464;11.964;2022-08-21T04:51:02;23.60;63.40
46932;DHT22;32670;51.464;11.964;2022-08-21T04:53:36;23.60;63.30
46932;DHT22;32670;51.464;11.964;2022-08-21T04:56:05;23.60;63.40
46932;DHT22;32670;51.464;11.964;2022-08-21T04:58:34;23.60;63.30
46932;DHT22;32670;51.464;11.964;2022-08-21T05:01:00;23.60;63.20
46932;DHT22;32670;51.464;11.964;2022-08-21T05:03:26;23.60;63.10
46932;DHT22;32670;51.464;11.964;2022-08-21T05:05:52;23.60;63.00
46932;DHT22;32670;51.464;11.964;2022-08-21T05:08:20;23.60;62.90
46932;DHT22;32670;51.464;11.964;2022-08-21T05:10:47;23.60;62.80
46932;DHT22;32670;51.464;11.964;2022-08-21T05:13:13;23.60;62.90
46932;DHT22;32670;51.464;11.964;2022-08-21T05:15:39;23.60;62.80
46932;DHT22;32670;51.464;11.964;2022-08-21T05:18:05;23.60;63.20
46932;DHT22;32670;51.464;11.964;2022-08-21T05:20:32;23.50;63.50
46932;DHT22;32670;51.464;11.964;2022-08-21T05:22:59;23.60;63.70
46932;DHT22;32670;51.464;11.964;2022-08-21T05:25:25;23.50;63.70
46932;DHT22;32670;51.464;11.964;2022-08-21T05:27:51;23.60;63.70
46932;DHT22;32670;51.464;11.964;2022-08-21T05:30:16;23.60;63.30
46932;DHT22;32670;51.464;11.964;2022-08-21T05:32:42;23.60;63.30
46932;DHT22;32670;51.464;11.964;2022-08-21T05:35:07;23.70;63.60
46932;DHT22;32670;51.464;11.964;2022-08-21T05:37:33;23.80;63.40
46932;DHT22;32670;51.464;11.964;2022-08-21T05:40:00;23.90;63.50
46932;DHT22;32670;51.464;11.964;2022-08-21T05:42:25;23.90;63.40
46932;DHT22;32670;51.464;11.964;2022-08-21T05:44:51;24.00;63.60
46932;DHT22;32670;51.464;11.964;2022-08-21T05:47:16;24.10;63.40
46932;DHT22;32670;51.464;11.964;2022-08-21T05:49:42;24.10;63.30
46932;DHT22;32670;51.464;11.964;2022-08-21T05:52:07;24.20;63.50
46932;DHT22;32670;51.464;11.964;2022-08-21T05:54:33;24.30;63.50
46932;DHT22;32670;51.464;11.964;2022-08-21T05:57:00;24.30;64.00
46932;DHT22;32670;51.464;11.964;2022-08-21T05:59:26;24.40;63.50
46932;DHT22;32670;51.464;11.964;2022-08-21T06:01:52;24.40;63.60
46932;DHT22;32670;51.464;11.964;2022-08-21T06:04:18;24.40;63.40
46932;DHT22;32670;51.464;11.964;2022-08-21T06:06:43;24.40;63.40
46932;DHT22;32670;51.464;11.964;2022-08-21T06:09:09;24.50;63.50
46932;DHT22;32670;51.464;11.964;2022-08-21T06:11:34;24.50;63.50
46932;DHT22;32670;51.464;11.964;2022-08-21T06:14:00;24.60;63.60
46932;DHT22;32670;51.464;11.964;2022-08-21T06:16:26;24.60;63.50
46932;DHT22;32670;51.464;11.964;2022-08-21T06:18:52;24.60;63.50
46932;DHT22;32670;51.464;11.964;2022-08-21T06:21:18;24.60;63.50
46932;DHT22;32670;51.464;11.964;2022-08-21T06:23:43;24.60;63.40
46932;DHT22;32670;51.464;11.964;2022-08-21T06:26:11;24.60;63.50
46932;DHT22;32670;51.464;11.964;2022-08-21T06:28:37;24.60;63.60
46932;DHT22;32670;51.464;11.964;2022-08-21T06:31:15;24.60;63.60
46932;DHT22;32670;51.464;11.964;2022-08-21T06:33:41;24.60;63.90
46932;DHT22;32670;51.464;11.964;2022-08-21T06:36:06;24.70;63.60
46932;DHT22;32670;51.464;11.964;2022-08-21T06:38:32;24.70;63.40
46932;DHT22;32670;51.464;11.964;2022-08-21T06:40:57;24.60;63.30
46932;DHT22;32670;51.464;11.964;2022-08-21T06:43:23;24.60;63.30
46932;DHT22;32670;51.464;11.964;2022-08-21T06:45:49;24.60;63.40
46932;DHT22;32670;51.464;11.964;2022-08-21T06:48:14;24.60;63.40
46932;DHT22;32670;51.464;11.964;2022-08-21T06:50:40;24.70;63.50
46932;DHT22;32670;51.464;11.964;2022-08-21T06:53:11;24.70;63.70
46932;DHT22;32670;51.464;11.964;2022-08-21T06:55:37;24.70;63.90
46932;DHT22;32670;51.464;11.964;2022-08-21T06:58:04;24.70;63.90
46932;DHT22;32670;51.464;11.964;2022-08-21T07:00:30;24.70;63.90
46932;DHT22;32670;51.464;11.964;2022-08-21T07:02:57;24.70;64.00
46932;DHT22;32670;51.464;11.964;2022-08-21T07:05:26;24.70;63.90
46932;DHT22;32670;51.464;11.964;2022-08-21T07:07:51;24.80;64.00
46932;DHT22;32670;51.464;11.964;2022-08-21T07:10:17;24.80;64.20
46932;DHT22;32670;51.464;11.964;2022-08-21T07:12:43;24.80;64.00
46932;DHT22;32670;51.464;11.964;2022-08-21T07:15:09;24.90;64.00
46932;DHT22;32670;51.464;11.964;2022-08-21T07:17:34;24.80;64.00
46932;DHT22;32670;51.464;11.964;2022-08-21T07:20:00;24.90;64.10
46932;DHT22;32670;51.464;11.964;2022-08-21T07:22:25;24.80;64.00
46932;DHT22;32670;51.464;11.964;2022-08-21T07:24:53;24.90;64.40
46932;DHT22;32670;51.464;11.964;2022-08-21T07:27:18;24.90;64.20
46932;DHT22;32670;51.464;11.964;2022-08-21T07:29:44;24.90;64.90
46932;DHT22;32670;51.464;11.964;2022-08-21T07:32:09;24.90;64.30
46932;DHT22;32670;51.464;11.964;2022-08-21T07:34:35;24.90;64.80
46932;DHT22;32670;51.464;11.964;2022-08-21T07:37:00;25.00;64.50
46932;DHT22;32670;51.464;11.964;2022-08-21T07:39:26;25.00;64.40
46932;DHT22;32670;51.464;11.964;2022-08-21T07:41:51;25.00;64.30
46932;DHT22;32670;51.464;11.964;2022-08-21T07:44:17;25.00;64.30
46932;DHT22;32670;51.464;11.964;2022-08-21T07:46:45;25.00;64.40
46932;DHT22;32670;51.464;11.964;2022-08-21T07:49:10;25.00;64.60
46932;DHT22;32670;51.464;11.964;2022-08-21T07:51:36;25.00;62.30
46932;DHT22;32670;51.464;11.964;2022-08-21T07:54:02;25.00;60.30
46932;DHT22;32670;51.464;11.964;2022-08-21T07:56:28;25.00;60.10
46932;DHT22;32670;51.464;11.964;2022-08-21T07:58:54;25.00;60.00
46932;DHT22;32670;51.464;11.964;2022-08-21T08:01:22;25.00;59.90
46932;DHT22;32670;51.464;11.964;2022-08-21T08:03:48;25.00;60.30
46932;DHT22;32670;51.464;11.964;2022-08-21T08:06:13;25.00;59.40
46932;DHT22;32670;51.464;11.964;2022-08-21T08:08:40;25.00;59.60
46932;DHT22;32670;51.464;11.964;2022-08-21T08:11:06;25.00;59.30
46932;DHT22;32670;51.464;11.964;2022-08-21T08:13:38;25.00;60.60
46932;DHT22;32670;51.464;11.964;2022-08-21T08:16:04;25.00;59.30
46932;DHT22;32670;51.464;11.964;2022-08-21T08:18:30;25.00;59.20
46932;DHT22;32670;51.464;11.964;2022-08-21T08:20:55;25.00;59.90
46932;DHT22;32670;51.464;11.964;2022-08-21T08:23:21;25.00;60.20
46932;DHT22;32670;51.464;11.964;2022-08-21T08:25:47;25.00;60.20
46932;DHT22;32670;51.464;11.964;2022-08-21T08:28:13;25.00;60.70
46932;DHT22;32670;51.464;11.964;2022-08-21T08:30:38;25.00;61.20
46932;DHT22;32670;51.464;11.964;2022-08-21T08:33:04;25.10;61.70
46932;DHT22;32670;51.464;11.964;2022-08-21T08:35:29;25.10;61.80
46932;DHT22;32670;51.464;11.964;2022-08-21T08:37:55;25.10;61.90
46932;DHT22;32670;51.464;11.964;2022-08-21T08:40:32;25.10;62.10
46932;DHT22;32670;51.464;11.964;2022-08-21T08:43:01;25.10;62.30
46932;DHT22;32670;51.464;11.964;2022-08-21T08:45:27;25.20;62.40
46932;DHT22;32670;51.464;11.964;2022-08-21T08:47:57;25.20;62.50
46932;DHT22;32670;51.464;11.964;2022-08-21T08:53:46;25.20;62.70
46932;DHT22;32670;51.464;11.964;2022-08-21T08:56:13;25.20;62.70
46932;DHT22;32670;51.464;11.964;2022-08-21T08:58:41;25.30;62.90
46932;DHT22;32670;51.464;11.964;2022-08-21T09:01:16;25.30;62.80
46932;DHT22;32670;51.464;11.964;2022-08-21T09:03:42;25.30;63.00
46932;DHT22;32670;51.464;11.964;2022-08-21T09:06:20;25.30;62.90
46932;DHT22;32670;51.464;11.964;2022-08-21T09:09:06;25.30;63.00
46932;DHT22;32670;51.464;11.964;2022-08-21T09:12:02;25.30;63.10
46932;DHT22;32670;51.464;11.964;2022-08-21T09:14:52;25.30;63.10
46932;DHT22;32670;51.464;11.964;2022-08-21T09:26:13;25.40;64.90
46932;DHT22;32670;51.464;11.964;2022-08-21T09:28:39;25.40;64.90
46932;DHT22;32670;51.464;11.964;2022-08-21T09:31:21;25.50;67.00
46932;DHT22;32670;51.464;11.964;2022-08-21T09:33:46;25.50;66.70
46932;DHT22;32670;51.464;11.964;2022-08-21T09:36:24;25.50;66.20
46932;DHT22;32670;51.464;11.964;2022-08-21T09:38:53;25.50;65.60
46932;DHT22;32670;51.464;11.964;2022-08-21T09:41:26;25.50;66.10
46932;DHT22;32670;51.464;11.964;2022-08-21T09:43:53;25.60;66.30
46932;DHT22;32670;51.464;11.964;2022-08-21T09:46:24;25.60;66.00
46932;DHT22;32670;51.464;11.964;2022-08-21T09:48:53;25.60;66.30
46932;DHT22;32670;51.464;11.964;2022-08-21T09:51:28;25.60;58.00
46932;DHT22;32670;51.464;11.964;2022-08-21T09:56:34;25.60;59.60
46932;DHT22;32670;51.464;11.964;2022-08-21T09:59:29;25.60;59.80
46932;DHT22;32670;51.464;11.964;2022-08-21T10:01:59;25.60;59.80
46932;DHT22;32670;51.464;11.964;2022-08-21T10:04:34;25.70;60.50
46932;DHT22;32670;51.464;11.964;2022-08-21T10:07:10;25.60;60.70
46932;DHT22;32670;51.464;11.964;2022-08-21T10:09:36;25.60;61.10
46932;DHT22;32670;51.464;11.964;2022-08-21T10:20:25;25.60;61.60
46932;DHT22;32670;51.464;11.964;2022-08-21T10:40:37;25.70;62.00
46932;DHT22;32670;51.464;11.964;2022-08-21T10:43:42;25.70;61.90
46932;DHT22;32670;51.464;11.964;2022-08-21T10:46:33;25.70;61.80
46932;DHT22;32670;51.464;11.964;2022-08-21T10:52:30;25.80;61.90
46932;DHT22;32670;51.464;11.964;2022-08-21T10:55:12;25.70;62.00
46932;DHT22;32670;51.464;11.964;2022-08-21T11:00:23;25.80;62.10
46932;DHT22;32670;51.464;11.964;2022-08-21T11:03:04;25.80;62.10
46932;DHT22;32670;51.464;11.964;2022-08-21T11:05:34;25.80;62.00
46932;DHT22;32670;51.464;11.964;2022-08-21T11:08:08;25.80;62.10
46932;DHT22;32670;51.464;11.964;2022-08-21T11:10:55;25.80;62.10
46932;DHT22;32670;51.464;11.964;2022-08-21T11:13:44;25.80;62.10
46932;DHT22;32670;51.464;11.964;2022-08-21T11:16:33;25.80;62.10
46932;DHT22;32670;51.464;11.964;2022-08-21T11:19:08;25.80;62.10
46932;DHT22;32670;51.464;11.964;2022-08-21T11:21:54;25.80;62.00
46932;DHT22;32670;51.464;11.964;2022-08-21T11:27:05;25.80;62.20
46932;DHT22;32670;51.464;11.964;2022-08-21T11:29:37;25.90;62.30
46932;DHT22;32670;51.464;11.964;2022-08-21T11:32:23;25.90;62.20
46932;DHT22;32670;51.464;11.964;2022-08-21T11:37:55;25.90;62.10
46932;DHT22;32670;51.464;11.964;2022-08-21T11:41:07;25.90;62.30
46932;DHT22;32670;51.464;11.964;2022-08-21T11:43:45;25.90;62.20
46932;DHT22;32670;51.464;11.964;2022-08-21T11:46:35;25.90;62.30
46932;DHT22;32670;51.464;11.964;2022-08-21T11:51:50;25.90;62.20
46932;DHT22;32670;51.464;11.964;2022-08-21T11:54:33;25.90;62.20
46932;DHT22;32670;51.464;11.964;2022-08-21T11:57:05;25.90;62.20
46932;DHT22;32670;51.464;11.964;2022-08-21T11:59:59;25.90;62.10
46932;DHT22;32670;51.464;11.964;2022-08-21T12:02:31;26.00;62.20
46932;DHT22;32670;51.464;11.964;2022-08-21T12:05:02;25.90;62.20
46932;DHT22;32670;51.464;11.964;2022-08-21T12:07:38;25.90;62.10
46932;DHT22;32670;51.464;11.964;2022-08-21T12:10:30;25.90;62.10
46932;DHT22;32670;51.464;11.964;2022-08-21T12:13:06;26.00;62.10
46932;DHT22;32670;51.464;11.964;2022-08-21T12:15:33;26.00;62.10
46932;DHT22;32670;51.464;11.964;2022-08-21T12:18:22;26.00;62.20
46932;DHT22;32670;51.464;11.964;2022-08-21T12:21:02;26.00;62.10
46932;DHT22;32670;51.464;11.964;2022-08-21T12:23:45;26.00;62.10
46932;DHT22;32670;51.464;11.964;2022-08-21T12:26:23;26.00;61.80
46932;DHT22;32670;51.464;11.964;2022-08-21T12:28:49;26.00;61.50
46932;DHT22;32670;51.464;11.964;2022-08-21T12:31:26;26.00;61.80
46932;DHT22;32670;51.464;11.964;2022-08-21T12:33:58;26.10;61.90
46932;DHT22;32670;51.464;11.964;2022-08-21T12:36:35;26.00;61.80
46932;DHT22;32670;51.464;11.964;2022-08-21T12:39:11;26.00;61.90
46932;DHT22;32670;51.464;11.964;2022-08-21T12:41:49;26.00;61.70
46932;DHT22;32670;51.464;11.964;2022-08-21T12:47:17;26.00;61.80
46932;DHT22;32670;51.464;11.964;2022-08-21T12:49:59;26.00;61.70
46932;DHT22;32670;51.464;11.964;2022-08-21T12:52:34;26.00;61.80
46932;DHT22;32670;51.464;11.964;2022-08-21T12:55:01;26.00;61.90
46932;DHT22;32670;51.464;11.964;2022-08-21T12:57:29;26.00;61.90
46932;DHT22;32670;51.464;11.964;2022-08-21T13:00:00;26.00;62.10
46932;DHT22;32670;51.464;11.964;2022-08-21T13:02:30;26.00;62.00
46932;DHT22;32670;51.464;11.964;2022-08-21T13:04:57;26.00;61.80
46932;DHT22;32670;51.464;11.964;2022-08-21T13:07:29;26.10;62.40
46932;DHT22;32670;51.464;11.964;2022-08-21T13:10:16;26.10;62.30
46932;DHT22;32670;51.464;11.964;2022-08-21T13:12:43;26.10;63.70
46932;DHT22;32670;51.464;11.964;2022-08-21T13:15:11;26.10;63.90
46932;DHT22;32670;51.464;11.964;2022-08-21T13:17:41;26.10;64.00
46932;DHT22;32670;51.464;11.964;2022-08-21T13:20:23;26.20;63.90
46932;DHT22;32670;51.464;11.964;2022-08-21T13:22:49;26.10;64.20
46932;DHT22;32670;51.464;11.964;2022-08-21T13:25:19;26.20;63.70
46932;DHT22;32670;51.464;11.964;2022-08-21T13:28:06;26.20;64.80
46932;DHT22;32670;51.464;11.964;2022-08-21T13:30:32;26.20;64.80
46932;DHT22;32670;51.464;11.964;2022-08-21T13:33:02;26.20;64.30
46932;DHT22;32670;51.464;11.964;2022-08-21T13:35:36;26.20;64.60
46932;DHT22;32670;51.464;11.964;2022-08-21T13:38:02;26.20;65.10
46932;DHT22;32670;51.464;11.964;2022-08-21T13:40:49;26.30;65.10
46932;DHT22;32670;51.464;11.964;2022-08-21T13:43:18;26.20;65.70
46932;DHT22;32670;51.464;11.964;2022-08-21T13:45:49;26.20;64.90
46932;DHT22;32670;51.464;11.964;2022-08-21T13:48:15;26.30;64.40
46932;DHT22;32670;51.464;11.964;2022-08-21T13:50:41;26.30;65.10
46932;DHT22;32670;51.464;11.964;2022-08-21T13:53:23;26.30;65.50
46932;DHT22;32670;51.464;11.964;2022-08-21T13:55:53;26.30;64.30
46932;DHT22;32670;51.464;11.964;2022-08-21T13:58:32;26.30;64.70
46932;DHT22;32670;51.464;11.964;2022-08-21T14:00:59;26.30;65.40
46932;DHT22;32670;51.464;11.964;2022-08-21T14:03:34;26.30;65.30
46932;DHT22;32670;51.464;11.964;2022-08-21T14:06:00;26.30;65.70
46932;DHT22;32670;51.464;11.964;2022-08-21T14:08:34;26.30;65.60
46932;DHT22;32670;51.464;11.964;2022-08-21T14:11:02;26.30;65.80
46932;DHT22;32670;51.464;11.964;2022-08-21T14:13:44;26.40;65.80
46932;DHT22;32670;51.464;11.964;2022-08-21T14:16:15;26.30;65.90
46932;DHT22;32670;51.464;11.964;2022-08-21T14:18:46;26.40;65.80
46932;DHT22;32670;51.464;11.964;2022-08-21T14:21:12;26.40;65.70
46932;DHT22;32670;51.464;11.964;2022-08-21T14:23:39;26.40;65.70
46932;DHT22;32670;51.464;11.964;2022-08-21T14:26:06;26.40;65.80
46932;DHT22;32670;51.464;11.964;2022-08-21T14:28:34;26.40;65.90
46932;DHT22;32670;51.464;11.964;2022-08-21T14:31:18;26.40;65.90
46932;DHT22;32670;51.464;11.964;2022-08-21T14:33:44;26.40;66.10
46932;DHT22;32670;51.464;11.964;2022-08-21T14:36:10;26.40;65.10
46932;DHT22;32670;51.464;11.964;2022-08-21T14:38:38;26.40;64.70
46932;DHT22;32670;51.464;11.964;2022-08-21T14:41:13;26.40;64.30
46932;DHT22;32670;51.464;11.964;2022-08-21T14:43:41;26.40;64.00
46932;DHT22;32670;51.464;11.964;2022-08-21T14:46:07;26.40;64.40
46932;DHT22;32670;51.464;11.964;2022-08-21T14:48:32;26.30;64.40
46932;DHT22;32670;51.464;11.964;2022-08-21T14:50:58;26.40;63.80
46932;DHT22;32670;51.464;11.964;2022-08-21T14:53:24;26.40;64.00
46932;DHT22;32670;51.464;11.964;2022-08-21T14:55:49;26.40;64.00
46932;DHT22;32670;51.464;11.964;2022-08-21T14:58:31;26.40;63.80
46932;DHT22;32670;51.464;11.964;2022-08-21T15:00:56;26.40;63.80
46932;DHT22;32670;51.464;11.964;2022-08-21T15:03:23;26.40;63.80
46932;DHT22;32670;51.464;11.964;2022-08-21T15:05:49;26.40;63.70
46932;DHT22;32670;51.464;11.964;2022-08-21T15:08:15;26.40;63.90
46932;DHT22;32670;51.464;11.964;2022-08-21T15:10:41;26.50;64.00
46932;DHT22;32670;51.464;11.964;2022-08-21T15:13:07;26.40;63.90
46932;DHT22;32670;51.464;11.964;2022-08-21T15:15:41;26.50;63.80
46932;DHT22;32670;51.464;11.964;2022-08-21T15:18:07;26.50;63.80
46932;DHT22;32670;51.464;11.964;2022-08-21T15:20:34;26.50;63.90
46932;DHT22;32670;51.464;11.964;2022-08-21T15:23:00;26.50;63.50
46932;DHT22;32670;51.464;11.964;2022-08-21T15:25:26;26.40;63.40
46932;DHT22;32670;51.464;11.964;2022-08-21T15:27:51;26.50;63.50
46932;DHT22;32670;51.464;11.964;2022-08-21T15:30:17;26.50;63.50
46932;DHT22;32670;51.464;11.964;2022-08-21T15:32:42;26.50;63.50
46932;DHT22;32670;51.464;11.964;2022-08-21T15:35:08;26.50;64.10
46932;DHT22;32670;51.464;11.964;2022-08-21T15:37:34;26.50;63.50
46932;DHT22;32670;51.464;11.964;2022-08-21T15:40:00;26.50;63.60
46932;DHT22;32670;51.464;11.964;2022-08-21T15:42:26;26.50;63.60
46932;DHT22;32670;51.464;11.964;2022-08-21T15:44:53;26.50;63.60
46932;DHT22;32670;51.464;11.964;2022-08-21T15:47:22;26.50;63.60
46932;DHT22;32670;51.464;11.964;2022-08-21T15:49:49;26.50;63.60
46932;DHT22;32670;51.464;11.964;2022-08-21T15:52:17;26.60;63.60
46932;DHT22;32670;51.464;11.964;2022-08-21T15:54:43;26.50;63.40
46932;DHT22;32670;51.464;11.964;2022-08-21T15:57:20;26.50;63.40
46932;DHT22;32670;51.464;11.964;2022-08-21T15:59:58;26.60;65.50
46932;DHT22;32670;51.464;11.964;2022-08-21T16:02:30;26.60;65.10
46932;DHT22;32670;51.464;11.964;2022-08-21T16:04:56;26.60;65.00
46932;DHT22;32670;51.464;11.964;2022-08-21T16:07:21;26.60;64.90
46932;DHT22;32670;51.464;11.964;2022-08-21T16:09:47;26.60;64.70
46932;DHT22;32670;51.464;11.964;2022-08-21T16:12:19;26.60;64.50
46932;DHT22;32670;51.464;11.964;2022-08-21T16:14:46;26.60;64.50
46932;DHT22;32670;51.464;11.964;2022-08-21T16:17:11;26.60;64.10
46932;DHT22;32670;51.464;11.964;2022-08-21T16:19:37;26.60;64.10
46932;DHT22;32670;51.464;11.964;2022-08-21T16:22:03;26.60;63.80
46932;DHT22;32670;51.464;11.964;2022-08-21T16:24:29;26.60;64.00
46932;DHT22;32670;51.464;11.964;2022-08-21T16:26:54;26.60;63.90